createdAt,value
2023-03-26T00:01:36.835Z,6.61
2023-03-26T00:04:46.739Z,7.33
2023-03-26T00:07:53.251Z,7.10
2023-03-26T00:11:00.950Z,6.95
2023-03-26T00:14:07.643Z,7.39
2023-03-26T00:17:13.684Z,7.42
2023-03-26T00:20:21.780Z,7.38
2023-03-26T00:23:28.521Z,7.33
2023-03-26T00:26:35.602Z,6.86
2023-03-26T00:29:41.580Z,6.52
2023-03-26T00:32:53.618Z,6.25
2023-03-26T00:36:04.411Z,6.17
2023-03-26T00:39:11.368Z,6.26
2023-03-26T00:42:17.841Z,6.63
2023-03-26T00:45:24.234Z,7.03
2023-03-26T00:48:44.006Z,6.96
2023-03-26T00:51:53.076Z,6.91
2023-03-26T00:54:59.331Z,6.86
2023-03-26T00:58:05.481Z,6.96
2023-03-26T01:01:14.835Z,6.58
2023-03-26T01:04:28.187Z,6.53
2023-03-26T01:07:37.153Z,6.93
2023-03-26T01:10:50.928Z,6.89
2023-03-26T01:13:59.600Z,6.67
2023-03-26T01:17:09.302Z,6.15
2023-03-26T01:20:26.715Z,6.07
2023-03-26T01:23:41.845Z,6.03
2023-03-26T01:27:11.098Z,6.03
2023-03-26T01:30:25.451Z,6.09
2023-03-26T01:33:38.609Z,6.02
2023-03-26T01:36:51.814Z,6.43
2023-03-26T01:40:06.219Z,6.32
2023-03-26T01:43:21.053Z,6.13
2023-03-26T01:46:29.073Z,6.11
2023-03-26T01:49:35.645Z,6.33
2023-03-26T01:52:41.822Z,6.29
2023-03-26T01:56:02.154Z,6.09
2023-03-26T01:59:32.183Z,6.09
2023-03-26T02:02:47.023Z,6.09
2023-03-26T02:05:58.840Z,6.54
2023-03-26T02:09:08.099Z,6.41
2023-03-26T02:12:15.993Z,8.66
2023-03-26T02:15:24.421Z,9.44
2023-03-26T02:18:36.892Z,10.20
2023-03-26T02:21:43.479Z,10.25
2023-03-26T02:24:50.203Z,10.35
2023-03-26T02:27:56.694Z,10.24
2023-03-26T02:31:04.623Z,10.15
2023-03-26T02:34:11.008Z,9.98
2023-03-26T02:37:19.202Z,10.23
2023-03-26T02:40:25.275Z,10.70
2023-03-26T02:43:31.937Z,10.41
2023-03-26T02:46:39.221Z,10.55
2023-03-26T02:49:45.551Z,10.58
2023-03-26T02:52:51.585Z,10.56
2023-03-26T02:55:58.192Z,10.14
2023-03-26T02:59:04.583Z,9.56
2023-03-26T03:02:13.536Z,8.71
2023-03-26T03:05:20.424Z,8.29
2023-03-26T03:08:29.402Z,7.94
2023-03-26T03:11:35.799Z,8.00
2023-03-26T03:14:42.368Z,7.86
2023-03-26T03:17:50.007Z,7.77
2023-03-26T03:20:56.669Z,8.03
2023-03-26T03:24:02.621Z,7.85
2023-03-26T03:27:09.670Z,7.63
2023-03-26T03:30:16.281Z,8.01
2023-03-26T03:33:23.962Z,8.50
2023-03-26T03:36:30.570Z,8.24
2023-03-26T03:39:37.256Z,8.64
2023-03-26T03:42:43.332Z,8.71
2023-03-26T03:45:49.645Z,9.05
2023-03-26T03:48:57.246Z,8.58
2023-03-26T03:52:03.448Z,8.32
2023-03-26T03:55:11.242Z,8.55
2023-03-26T03:58:21.908Z,8.57
2023-03-26T04:01:30.866Z,8.45
2023-03-26T04:04:39.238Z,8.33
2023-03-26T04:07:45.636Z,8.32
2023-03-26T04:10:53.440Z,9.17
2023-03-26T04:13:59.758Z,8.98
2023-03-26T04:17:06.700Z,9.13
2023-03-26T04:20:15.898Z,9.16
2023-03-26T04:23:23.645Z,8.99
2023-03-26T04:26:31.103Z,9.08
2023-03-26T04:29:43.315Z,8.92
2023-03-26T04:32:49.965Z,9.08
2023-03-26T04:36:01.864Z,9.26
2023-03-26T04:39:08.238Z,9.41
2023-03-26T04:42:14.471Z,9.31
2023-03-26T04:45:22.738Z,9.19
2023-03-26T04:48:30.510Z,9.30
2023-03-26T04:51:42.057Z,9.36
2023-03-26T04:54:48.628Z,9.54
2023-03-26T04:57:57.839Z,9.65
2023-03-26T05:01:09.770Z,9.87
2023-03-26T05:04:17.000Z,9.92
2023-03-26T05:07:25.028Z,10.39
2023-03-26T05:10:31.394Z,10.00
2023-03-26T05:13:37.840Z,10.25
2023-03-26T05:16:45.223Z,10.36
2023-03-26T05:19:52.186Z,10.69
2023-03-26T05:22:59.951Z,10.93
2023-03-26T05:26:07.824Z,11.36
2023-03-26T05:29:20.896Z,10.92
2023-03-26T05:32:27.196Z,11.32
2023-03-26T05:35:33.508Z,11.21
2023-03-26T05:38:41.325Z,10.79
2023-03-26T05:41:47.857Z,11.31
2023-03-26T05:44:54.268Z,11.65
2023-03-26T05:48:00.814Z,11.71
2023-03-26T05:51:08.128Z,11.38
2023-03-26T05:54:16.008Z,11.34
2023-03-26T05:57:24.041Z,11.46
2023-03-26T06:00:30.556Z,11.29
2023-03-26T06:03:39.265Z,11.52
2023-03-26T06:06:46.138Z,11.45
2023-03-26T06:09:54.108Z,11.84
2023-03-26T06:13:00.274Z,11.81
2023-03-26T06:16:08.026Z,11.89
2023-03-26T06:19:14.456Z,11.57
2023-03-26T06:22:20.699Z,11.86
2023-03-26T06:25:28.595Z,11.61
2023-03-26T06:28:35.453Z,11.77
2023-03-26T06:31:42.488Z,11.98
2023-03-26T06:34:49.318Z,11.40
2023-03-26T06:37:55.588Z,12.03
2023-03-26T06:41:05.602Z,12.08
2023-03-26T06:44:12.421Z,11.63
2023-03-26T06:47:18.997Z,11.72
2023-03-26T06:50:25.415Z,11.97
2023-03-26T06:53:31.883Z,11.56
2023-03-26T06:56:39.392Z,11.92
2023-03-26T06:59:45.980Z,12.46
2023-03-26T07:02:52.311Z,12.18
2023-03-26T07:05:58.524Z,12.70
2023-03-26T07:09:04.982Z,12.82
2023-03-26T07:12:12.698Z,12.65
2023-03-26T07:15:19.365Z,12.59
2023-03-26T07:18:25.914Z,12.49
2023-03-26T07:21:33.212Z,13.14
2023-03-26T07:24:40.163Z,13.19
2023-03-26T07:27:57.296Z,13.14
2023-03-26T07:31:14.843Z,13.29
2023-03-26T07:34:37.458Z,13.47
2023-03-26T07:37:53.692Z,14.16
2023-03-26T07:41:09.982Z,13.59
2023-03-26T07:44:51.460Z,13.57
2023-03-26T07:48:00.292Z,13.56
2023-03-26T07:51:07.636Z,13.53
2023-03-26T07:54:14.534Z,13.87
2023-03-26T07:57:33.248Z,13.67
2023-03-26T08:00:46.250Z,14.03
2023-03-26T08:04:24.575Z,14.46
2023-03-26T08:07:45.228Z,14.65
2023-03-26T08:11:08.772Z,14.45
2023-03-26T08:14:28.689Z,14.69
2023-03-26T08:17:39.977Z,14.78
2023-03-26T08:20:50.788Z,14.93
2023-03-26T08:24:03.667Z,15.23
2023-03-26T08:27:19.396Z,15.03
2023-03-26T08:30:27.960Z,15.62
2023-03-26T08:33:35.969Z,15.74
2023-03-26T08:36:45.049Z,15.73
2023-03-26T08:39:51.782Z,15.89
2023-03-26T08:43:38.787Z,15.85
2023-03-26T08:47:12.436Z,15.76
2023-03-26T08:50:49.656Z,16.42
2023-03-26T08:54:45.182Z,16.24
2023-03-26T08:58:24.401Z,16.78
2023-03-26T09:02:11.467Z,16.54
2023-03-26T09:05:57.358Z,16.23
2023-03-26T09:09:42.445Z,16.69
2023-03-26T09:13:20.985Z,16.73
2023-03-26T09:17:05.739Z,16.37
2023-03-26T09:20:52.340Z,16.30
2023-03-26T09:24:34.340Z,16.89
2023-03-26T09:27:48.564Z,16.47
2023-03-26T09:31:23.564Z,16.55
2023-03-26T09:34:33.205Z,17.36
2023-03-26T09:37:58.391Z,16.61
2023-03-26T09:41:15.156Z,17.39
2023-03-26T09:44:51.499Z,17.44
2023-03-26T09:48:19.597Z,17.37
2023-03-26T09:51:39.279Z,17.12
2023-03-26T09:55:03.049Z,17.20
2023-03-26T09:58:57.034Z,17.05
2023-03-26T10:02:18.562Z,17.21
2023-03-26T10:05:51.458Z,16.73
2023-03-26T10:09:17.658Z,17.60
2023-03-26T10:12:33.567Z,17.65
2023-03-26T10:15:57.615Z,17.61
2023-03-26T10:19:42.580Z,17.59
2023-03-26T10:23:04.967Z,17.89
2023-03-26T10:26:28.934Z,18.26
2023-03-26T10:30:07.989Z,17.55
2023-03-26T10:33:20.559Z,18.19
2023-03-26T10:36:33.521Z,17.97
2023-03-26T10:39:56.762Z,17.76
2023-03-26T10:43:42.678Z,17.86
2023-03-26T10:47:16.749Z,17.89
2023-03-26T10:50:42.229Z,17.91
2023-03-26T10:53:52.302Z,17.78
2023-03-26T10:56:59.298Z,17.33
2023-03-26T11:00:17.404Z,18.14
2023-03-26T11:03:44.256Z,18.10
2023-03-26T11:06:58.966Z,17.60
2023-03-26T11:10:10.101Z,18.07
2023-03-26T11:13:23.237Z,18.40
2023-03-26T11:16:42.778Z,18.14
2023-03-26T11:19:55.384Z,18.34
2023-03-26T11:23:20.013Z,17.91
2023-03-26T11:26:39.364Z,18.08
2023-03-26T11:29:54.569Z,18.39
2023-03-26T11:33:06.972Z,18.18
2023-03-26T11:36:17.711Z,19.00
2023-03-26T11:39:28.106Z,19.20
2023-03-26T11:42:34.601Z,19.26
2023-03-26T11:45:45.340Z,18.62
2023-03-26T11:48:58.284Z,18.43
2023-03-26T11:52:05.323Z,18.67
2023-03-26T11:55:13.015Z,18.68
2023-03-26T11:58:29.932Z,18.59
2023-03-26T12:01:51.102Z,18.69
2023-03-26T12:05:18.285Z,18.47
2023-03-26T12:08:32.661Z,18.29
2023-03-26T12:11:39.260Z,18.96
2023-03-26T12:14:46.398Z,18.67
2023-03-26T12:17:56.620Z,19.18
2023-03-26T12:21:10.340Z,18.84
2023-03-26T12:24:29.421Z,18.40
2023-03-26T12:27:38.082Z,18.78
2023-03-26T12:30:54.369Z,18.19
2023-03-26T12:34:14.402Z,18.55
2023-03-26T12:37:37.145Z,18.24
2023-03-26T12:40:45.198Z,18.30
2023-03-26T12:44:56.532Z,18.42
2023-03-26T12:47:56.570Z,18.82
2023-03-26T12:51:01.488Z,18.76
2023-03-26T12:54:37.683Z,18.85
2023-03-26T12:57:53.909Z,19.70
2023-03-26T13:01:15.859Z,19.30
2023-03-26T13:04:36.691Z,18.74
2023-03-26T13:08:08.187Z,19.05
2023-03-26T13:11:28.476Z,18.35
2023-03-26T13:14:46.863Z,18.60
2023-03-26T13:18:03.822Z,18.85
2023-03-26T13:21:16.713Z,18.73
2023-03-26T13:24:34.750Z,19.35
2023-03-26T13:27:53.082Z,19.12
2023-03-26T13:31:08.640Z,18.71
2023-03-26T13:34:25.030Z,19.07
2023-03-26T13:37:40.541Z,19.22
2023-03-26T13:40:57.992Z,19.09
2023-03-26T13:44:17.378Z,18.94
2023-03-26T13:47:28.632Z,18.41
2023-03-26T13:50:40.570Z,19.28
2023-03-26T13:53:51.940Z,18.68
2023-03-26T13:57:06.437Z,19.86
2023-03-26T14:00:21.625Z,19.28
2023-03-26T14:03:38.730Z,18.93
2023-03-26T14:06:54.207Z,18.90
2023-03-26T14:10:06.346Z,19.34
2023-03-26T14:13:20.425Z,19.40
2023-03-26T14:16:38.760Z,19.31
2023-03-26T14:20:32.813Z,19.63
2023-03-26T14:24:12.426Z,19.66
2023-03-26T14:27:34.296Z,19.06
2023-03-26T14:30:56.677Z,18.95
2023-03-26T14:34:25.334Z,18.82
2023-03-26T14:38:03.851Z,18.57
2023-03-26T14:41:19.339Z,19.35
2023-03-26T14:44:48.684Z,18.51
2023-03-26T14:48:14.513Z,18.95
2023-03-26T14:51:35.276Z,18.30
2023-03-26T14:54:45.953Z,18.71
2023-03-26T14:58:15.756Z,17.41
2023-03-26T15:01:29.517Z,17.07
2023-03-26T15:05:07.192Z,16.73
2023-03-26T15:08:58.514Z,16.95
2023-03-26T15:12:14.579Z,16.94
2023-03-26T15:15:58.969Z,16.99
2023-03-26T15:19:32.173Z,16.92
2023-03-26T15:23:11.563Z,16.40
2023-03-26T15:26:51.683Z,16.58
2023-03-26T15:30:28.422Z,16.56
2023-03-26T15:34:04.826Z,16.29
2023-03-26T15:37:49.502Z,16.12
2023-03-26T15:41:12.567Z,16.09
2023-03-26T15:44:53.211Z,15.91
2023-03-26T15:48:37.602Z,16.09
2023-03-26T15:51:52.003Z,15.89
2023-03-26T15:55:06.325Z,15.98
2023-03-26T15:58:19.537Z,15.68
2023-03-26T16:01:51.642Z,15.72
2023-03-26T16:05:05.247Z,15.58
2023-03-26T16:08:24.642Z,15.03
2023-03-26T16:11:52.012Z,15.09
2023-03-26T16:15:24.748Z,14.83
2023-03-26T16:18:37.377Z,14.67
2023-03-26T16:21:57.747Z,14.42
2023-03-26T16:25:29.113Z,14.37
2023-03-26T16:28:37.484Z,14.22
2023-03-26T16:32:05.282Z,13.99
2023-03-26T16:35:42.821Z,13.79
2023-03-26T16:39:12.655Z,13.63
2023-03-26T16:42:39.907Z,13.44
2023-03-26T16:45:54.355Z,13.12
2023-03-26T16:49:10.710Z,12.60
2023-03-26T16:52:34.458Z,12.53
2023-03-26T16:55:49.404Z,12.32
2023-03-26T16:58:59.321Z,12.28
2023-03-26T17:02:16.700Z,12.01
2023-03-26T17:05:34.399Z,11.98
2023-03-26T17:08:49.505Z,11.91
2023-03-26T17:12:06.199Z,11.71
2023-03-26T17:15:23.392Z,11.67
2023-03-26T17:18:38.991Z,11.51
2023-03-26T17:21:55.750Z,11.19
2023-03-26T17:25:13.492Z,11.27
2023-03-26T17:28:28.769Z,11.17
2023-03-26T17:31:43.920Z,11.11
2023-03-26T17:35:02.479Z,10.82
2023-03-26T17:38:45.213Z,10.83
2023-03-26T17:42:18.896Z,10.84
2023-03-26T17:45:30.600Z,11.01
2023-03-26T17:48:45.821Z,10.78
2023-03-26T17:51:57.979Z,10.84
2023-03-26T17:55:05.596Z,10.56
2023-03-26T17:58:24.609Z,10.45
2023-03-26T18:01:37.265Z,10.20
2023-03-26T18:04:47.850Z,10.09
2023-03-26T18:08:40.896Z,10.04
2023-03-26T18:12:18.437Z,10.16
2023-03-26T18:15:39.382Z,9.97
2023-03-26T18:18:50.993Z,9.91
2023-03-26T18:21:59.636Z,9.80
2023-03-26T18:25:06.573Z,9.40
2023-03-26T18:28:15.807Z,9.27
2023-03-26T18:31:26.177Z,9.69
2023-03-26T18:34:34.705Z,9.63
2023-03-26T18:37:44.301Z,9.43
2023-03-26T18:40:52.542Z,9.07
2023-03-26T18:44:03.793Z,9.18
2023-03-26T18:47:13.415Z,9.03
2023-03-26T18:50:24.656Z,9.17
2023-03-26T18:53:35.804Z,9.03
2023-03-26T18:56:43.716Z,9.04
2023-03-26T18:59:51.686Z,8.90
2023-03-26T19:03:05.405Z,8.78
2023-03-26T19:06:15.223Z,8.74
2023-03-26T19:09:31.128Z,8.91
2023-03-26T19:12:40.232Z,8.80
2023-03-26T19:15:47.681Z,8.71
2023-03-26T19:18:55.415Z,8.55
2023-03-26T19:22:03.817Z,8.69
2023-03-26T19:25:19.137Z,8.67
2023-03-26T19:28:27.547Z,8.67
2023-03-26T19:31:36.127Z,8.67
2023-03-26T19:34:46.459Z,8.74
2023-03-26T19:37:55.240Z,8.72
2023-03-26T19:41:01.592Z,8.65
2023-03-26T19:44:19.727Z,8.58
2023-03-26T19:47:46.219Z,8.52
2023-03-26T19:51:06.284Z,8.44
2023-03-26T19:54:17.025Z,8.42
2023-03-26T19:57:24.815Z,8.36
2023-03-26T20:00:31.980Z,8.36
2023-03-26T20:03:41.136Z,8.26
2023-03-26T20:06:49.633Z,8.10
2023-03-26T20:09:56.298Z,8.08
2023-03-26T20:13:02.547Z,8.02
2023-03-26T20:16:14.819Z,8.04
2023-03-26T20:19:21.423Z,8.06
2023-03-26T20:22:29.552Z,8.03
2023-03-26T20:25:35.637Z,7.81
2023-03-26T20:28:48.268Z,7.92
2023-03-26T20:31:58.813Z,7.79
2023-03-26T20:35:15.848Z,7.69
2023-03-26T20:38:36.724Z,7.58
2023-03-26T20:41:47.942Z,6.94
2023-03-26T20:44:54.403Z,6.59
2023-03-26T20:48:02.922Z,7.00
2023-03-26T20:51:13.933Z,7.29
2023-03-26T20:54:23.815Z,6.93
2023-03-26T20:57:30.097Z,7.15
2023-03-26T21:00:37.329Z,7.28
2023-03-26T21:03:44.105Z,6.49
2023-03-26T21:06:50.841Z,5.62
2023-03-26T21:10:02.743Z,6.47
2023-03-26T21:13:14.579Z,6.60
2023-03-26T21:16:21.661Z,6.38
2023-03-26T21:19:29.283Z,6.00
2023-03-26T21:22:43.491Z,5.80
2023-03-26T21:26:01.695Z,6.03
2023-03-26T21:29:08.809Z,5.06
2023-03-26T21:32:15.557Z,6.03
2023-03-26T21:35:23.026Z,6.22
2023-03-26T21:38:32.521Z,5.89
2023-03-26T21:41:46.111Z,5.57
2023-03-26T21:44:52.900Z,5.50
2023-03-26T21:47:59.653Z,6.20
2023-03-26T21:51:06.742Z,6.43
2023-03-26T21:54:23.632Z,6.43
2023-03-26T21:57:43.685Z,6.62
2023-03-26T22:01:03.842Z,5.83
2023-03-26T22:04:15.689Z,5.85
2023-03-26T22:07:27.493Z,6.50
2023-03-26T22:10:34.141Z,6.19
2023-03-26T22:13:42.307Z,5.85
2023-03-26T22:16:48.587Z,5.91
2023-03-26T22:19:56.158Z,5.55
2023-03-26T22:23:03.406Z,5.83
2023-03-26T22:26:09.808Z,6.05
2023-03-26T22:29:18.045Z,5.79
2023-03-26T22:32:24.491Z,5.35
2023-03-26T22:35:38.785Z,5.19
2023-03-26T22:38:45.051Z,5.84
2023-03-26T22:41:51.561Z,5.48
2023-03-26T22:44:59.030Z,5.69
2023-03-26T22:48:06.026Z,5.52
2023-03-26T22:51:12.933Z,5.24
2023-03-26T22:54:19.267Z,5.02
2023-03-26T22:57:25.896Z,5.39
2023-03-26T23:00:34.964Z,5.71
2023-03-26T23:03:41.491Z,5.63
2023-03-26T23:06:48.209Z,5.30
2023-03-26T23:09:54.752Z,5.41
2023-03-26T23:13:01.757Z,4.72
2023-03-26T23:16:11.361Z,5.51
2023-03-26T23:19:18.441Z,5.18
2023-03-26T23:22:24.983Z,5.34
2023-03-26T23:25:31.137Z,5.55
2023-03-26T23:28:38.328Z,4.71
2023-03-26T23:31:46.117Z,5.17
2023-03-26T23:34:53.116Z,4.00
2023-03-26T23:38:02.315Z,4.76
2023-03-26T23:41:09.649Z,5.21
2023-03-26T23:44:17.212Z,5.25
2023-03-26T23:47:25.377Z,5.60
2023-03-26T23:50:31.993Z,5.82
2023-03-26T23:53:38.630Z,5.70
2023-03-26T23:56:45.544Z,5.53
2023-03-26T23:59:52.024Z,4.30
